createdAt,value
2023-12-23T00:03:14.357Z,5.36
2023-12-23T00:08:17.468Z,5.38
2023-12-23T00:13:19.080Z,5.39
2023-12-23T00:18:20.812Z,5.37
2023-12-23T00:23:23.765Z,5.35
2023-12-23T00:28:25.343Z,5.38
2023-12-23T00:33:26.903Z,5.38
2023-12-23T00:38:29.859Z,5.38
2023-12-23T00:43:31.417Z,5.37
2023-12-23T00:48:33.145Z,5.35
2023-12-23T00:53:36.119Z,5.31
2023-12-23T00:58:37.847Z,5.27
2023-12-23T01:03:39.404Z,5.20
2023-12-23T01:08:42.357Z,5.16
2023-12-23T01:13:43.949Z,5.12
2023-12-23T01:18:45.634Z,5.16
2023-12-23T01:23:48.614Z,5.12
2023-12-23T01:28:51.185Z,5.14
2023-12-23T01:33:52.947Z,5.08
2023-12-23T01:38:56.401Z,5.09
2023-12-23T01:43:58.037Z,5.07
2023-12-23T01:49:01.072Z,5.05
2023-12-23T01:54:05.889Z,5.03
2023-12-23T01:59:08.084Z,4.95
2023-12-23T02:04:09.848Z,4.98
2023-12-23T02:09:12.917Z,5.04
2023-12-23T02:14:20.430Z,4.97
2023-12-23T02:19:22.142Z,4.95
2023-12-23T02:24:25.175Z,4.90
2023-12-23T02:29:28.117Z,4.89
2023-12-23T02:34:30.272Z,4.88
2023-12-23T02:39:33.185Z,4.95
2023-12-23T02:44:34.696Z,4.94
2023-12-23T02:49:37.125Z,4.93
2023-12-23T02:54:40.023Z,4.94
2023-12-23T02:59:41.656Z,4.90
2023-12-23T03:04:43.239Z,4.88
2023-12-23T03:09:46.213Z,4.82
2023-12-23T03:14:47.930Z,4.78
2023-12-23T03:19:49.581Z,4.83
2023-12-23T03:24:52.537Z,4.81
2023-12-23T03:29:54.090Z,4.79
2023-12-23T03:34:55.705Z,4.80
2023-12-23T03:39:58.670Z,4.83
2023-12-23T03:45:00.182Z,4.83
2023-12-23T03:50:01.836Z,4.82
2023-12-23T03:55:05.612Z,4.83
2023-12-23T04:00:08.620Z,4.78
2023-12-23T04:05:10.277Z,4.79
2023-12-23T04:10:13.144Z,4.79
2023-12-23T04:15:14.909Z,4.75
2023-12-23T04:20:16.538Z,4.75
2023-12-23T04:25:22.719Z,4.72
2023-12-23T04:30:24.876Z,4.70
2023-12-23T04:35:26.450Z,4.69
2023-12-23T04:40:29.277Z,4.67
2023-12-23T04:45:30.763Z,4.64
2023-12-23T04:50:32.264Z,4.66
2023-12-23T04:55:35.086Z,4.67
2023-12-23T05:00:36.585Z,4.70
2023-12-23T05:05:38.141Z,4.62
2023-12-23T05:10:41.212Z,4.59
2023-12-23T05:15:43.025Z,4.62
2023-12-23T05:20:44.617Z,4.56
2023-12-23T05:25:47.476Z,4.53
2023-12-23T05:30:49.127Z,4.55
2023-12-23T05:35:50.835Z,4.54
2023-12-23T05:40:53.818Z,4.57
2023-12-23T05:45:55.399Z,4.60
2023-12-23T05:50:56.928Z,4.64
2023-12-23T05:55:59.934Z,4.70
2023-12-23T06:01:01.641Z,4.75
2023-12-23T06:06:04.310Z,4.78
2023-12-23T06:11:07.285Z,4.77
2023-12-23T06:16:09.565Z,4.74
2023-12-23T06:21:11.161Z,4.78
2023-12-23T06:26:14.438Z,4.79
2023-12-23T06:31:16.127Z,4.83
2023-12-23T06:36:17.686Z,4.85
2023-12-23T06:41:20.652Z,4.87
2023-12-23T06:46:22.230Z,4.85
2023-12-23T06:51:23.727Z,4.88
2023-12-23T06:56:26.734Z,4.93
2023-12-23T07:01:37.060Z,4.95
2023-12-23T07:06:38.658Z,4.95
2023-12-23T07:11:41.589Z,4.99
2023-12-23T07:16:45.260Z,5.02
2023-12-23T07:21:46.866Z,5.04
2023-12-23T07:26:49.947Z,5.05
2023-12-23T07:31:51.622Z,5.08
2023-12-23T07:36:53.243Z,5.10
2023-12-23T07:41:56.128Z,5.11
2023-12-23T07:46:57.728Z,5.15
2023-12-23T07:52:00.375Z,5.17
2023-12-23T07:57:03.344Z,5.17
2023-12-23T08:02:05.153Z,5.17
2023-12-23T08:07:06.698Z,5.19
2023-12-23T08:12:09.956Z,5.25
2023-12-23T08:17:11.775Z,5.21
2023-12-23T08:22:13.373Z,5.21
2023-12-23T08:27:16.235Z,5.21
2023-12-23T08:32:17.891Z,5.14
2023-12-23T08:37:19.555Z,5.10
2023-12-23T08:42:22.526Z,5.14
2023-12-23T08:47:24.065Z,5.12
2023-12-23T08:52:25.639Z,5.14
2023-12-23T08:57:30.480Z,5.20
2023-12-23T09:02:31.998Z,5.21
2023-12-23T09:07:35.758Z,5.19
2023-12-23T09:12:38.876Z,5.24
2023-12-23T09:17:40.586Z,5.19
2023-12-23T09:22:42.312Z,5.15
2023-12-23T09:27:45.257Z,5.17
2023-12-23T09:32:46.916Z,5.07
2023-12-23T09:37:48.687Z,5.09
2023-12-23T09:42:51.851Z,5.06
2023-12-23T09:47:53.774Z,5.12
2023-12-23T09:52:57.511Z,5.11
2023-12-23T09:58:01.454Z,5.10
2023-12-23T10:03:03.136Z,5.11
2023-12-23T10:08:05.708Z,5.13
2023-12-23T10:13:08.607Z,5.12
2023-12-23T10:18:12.829Z,5.04
2023-12-23T10:23:14.608Z,5.08
2023-12-23T10:28:19.208Z,5.11
2023-12-23T10:33:23.093Z,5.18
2023-12-23T10:38:27.324Z,5.13
2023-12-23T10:43:30.297Z,5.09
2023-12-23T10:48:33.907Z,5.07
2023-12-23T10:53:36.507Z,5.05
2023-12-23T10:58:40.840Z,5.06
2023-12-23T11:03:44.424Z,5.03
2023-12-23T11:08:47.359Z,5.08
2023-12-23T11:13:51.783Z,5.12
2023-12-23T11:18:53.555Z,5.18
2023-12-23T11:23:58.260Z,5.20
2023-12-23T11:29:04.956Z,5.20
2023-12-23T11:34:13.537Z,5.20
2023-12-23T11:39:17.211Z,5.17
2023-12-23T11:44:20.278Z,5.12
2023-12-23T11:49:22.012Z,5.13
2023-12-23T11:54:24.712Z,5.11
2023-12-23T11:59:27.938Z,5.13
2023-12-23T12:04:29.456Z,5.21
2023-12-23T12:09:31.107Z,5.23
2023-12-23T12:14:34.003Z,5.12
2023-12-23T12:19:35.654Z,5.17
2023-12-23T12:24:37.288Z,5.20
2023-12-23T12:29:40.645Z,5.22
2023-12-23T12:34:44.024Z,5.20
2023-12-23T12:39:48.827Z,5.28
2023-12-23T12:44:51.739Z,5.23
2023-12-23T12:49:59.756Z,5.18
2023-12-23T12:55:08.630Z,5.02
2023-12-23T13:00:13.017Z,4.99
2023-12-23T13:05:14.721Z,5.04
2023-12-23T13:10:16.362Z,5.11
2023-12-23T13:15:19.434Z,5.07
2023-12-23T13:20:21.071Z,5.14
2023-12-23T13:25:24.731Z,5.10
2023-12-23T13:30:27.572Z,5.14
2023-12-23T13:35:29.299Z,5.15
2023-12-23T13:40:30.932Z,5.16
2023-12-23T13:45:33.837Z,5.16
2023-12-23T13:50:35.457Z,5.15
2023-12-23T13:55:37.087Z,4.98
2023-12-23T14:00:39.986Z,4.98
2023-12-23T14:05:41.723Z,4.98
2023-12-23T14:10:43.343Z,4.99
2023-12-23T14:15:46.253Z,5.04
2023-12-23T14:20:47.804Z,5.06
2023-12-23T14:25:49.517Z,5.02
2023-12-23T14:30:52.568Z,5.04
2023-12-23T14:35:54.360Z,5.10
2023-12-23T14:40:55.979Z,5.02
2023-12-23T14:45:58.855Z,4.94
2023-12-23T14:51:00.415Z,4.94
2023-12-23T14:56:02.203Z,4.94
2023-12-23T15:01:05.286Z,4.87
2023-12-23T15:06:07.143Z,4.83
2023-12-23T15:11:10.187Z,4.88
2023-12-23T15:16:13.141Z,4.84
2023-12-23T15:21:14.728Z,4.81
2023-12-23T15:26:16.500Z,4.81
2023-12-23T15:31:19.498Z,4.80
2023-12-23T15:36:21.014Z,4.83
2023-12-23T15:41:22.633Z,4.82
2023-12-23T15:46:25.497Z,4.83
2023-12-23T15:51:27.068Z,4.88
2023-12-23T15:56:28.750Z,4.84
2023-12-23T16:01:31.773Z,4.81
2023-12-23T16:06:33.655Z,4.79
2023-12-23T16:11:36.102Z,4.73
2023-12-23T16:16:39.040Z,4.71
2023-12-23T16:21:40.604Z,4.73
2023-12-23T16:26:42.259Z,4.72
2023-12-23T16:31:45.250Z,4.72
2023-12-23T16:36:46.902Z,4.67
2023-12-23T16:41:48.452Z,4.64
2023-12-23T16:46:51.386Z,4.60
2023-12-23T16:51:52.923Z,4.59
2023-12-23T16:56:54.603Z,4.55
2023-12-23T17:01:57.527Z,4.52
2023-12-23T17:06:59.081Z,4.49
2023-12-23T17:12:00.684Z,4.49
2023-12-23T17:17:04.750Z,4.46
2023-12-23T17:22:06.463Z,4.48
2023-12-23T17:27:08.043Z,4.47
2023-12-23T17:32:11.005Z,4.48
2023-12-23T17:37:12.597Z,4.48
2023-12-23T17:42:15.241Z,4.45
2023-12-23T17:47:18.151Z,4.44
2023-12-23T17:52:20.959Z,4.44
2023-12-23T17:57:22.496Z,4.41
2023-12-23T18:02:25.415Z,4.43
2023-12-23T18:07:27.977Z,4.31
2023-12-23T18:12:29.580Z,4.38
2023-12-23T18:17:32.585Z,4.37
2023-12-23T18:22:34.513Z,4.35
2023-12-23T18:27:36.140Z,4.32
2023-12-23T18:32:39.255Z,4.28
2023-12-23T18:37:40.909Z,4.33
2023-12-23T18:42:42.555Z,4.32
2023-12-23T18:47:45.687Z,4.36
2023-12-23T18:52:47.297Z,4.39
2023-12-23T18:57:48.817Z,4.42
2023-12-23T19:02:51.879Z,4.40
2023-12-23T19:07:53.703Z,4.42
2023-12-23T19:12:55.321Z,4.42
2023-12-23T19:17:58.455Z,4.53
2023-12-23T19:23:00.140Z,4.60
2023-12-23T19:28:01.782Z,4.61
2023-12-23T19:33:04.951Z,4.65
2023-12-23T19:38:06.698Z,4.70
2023-12-23T19:43:08.320Z,4.77
2023-12-23T19:48:11.812Z,4.80
2023-12-23T19:53:13.490Z,4.85
2023-12-23T19:58:15.107Z,4.90
2023-12-23T20:03:18.007Z,4.92
2023-12-23T20:08:19.624Z,4.92
2023-12-23T20:13:21.308Z,4.96
2023-12-23T20:18:27.587Z,4.98
2023-12-23T20:23:30.918Z,4.98
2023-12-23T20:28:32.591Z,5.02
2023-12-23T20:33:35.607Z,5.06
2023-12-23T20:38:37.216Z,5.08
2023-12-23T20:43:39.994Z,5.10
2023-12-23T20:48:42.996Z,5.10
2023-12-23T20:53:45.705Z,5.13
2023-12-23T20:58:47.293Z,5.12
2023-12-23T21:03:50.812Z,5.15
2023-12-23T21:08:52.388Z,5.16
2023-12-23T21:13:53.973Z,5.11
2023-12-23T21:18:56.918Z,5.15
2023-12-23T21:23:58.517Z,5.16
2023-12-23T21:29:00.167Z,5.14
2023-12-23T21:34:03.214Z,5.16
2023-12-23T21:39:04.838Z,5.18
2023-12-23T21:44:06.441Z,5.20
2023-12-23T21:49:09.401Z,5.19
2023-12-23T21:54:11.007Z,5.21
2023-12-23T21:59:12.721Z,5.20
2023-12-23T22:04:15.628Z,5.20
2023-12-23T22:09:17.178Z,5.17
2023-12-23T22:14:18.763Z,5.22
2023-12-23T22:19:21.756Z,5.18
2023-12-23T22:24:23.351Z,5.11
2023-12-23T22:29:26.964Z,5.06
2023-12-23T22:34:29.845Z,5.00
2023-12-23T22:39:31.396Z,5.00
2023-12-23T22:44:33.182Z,4.90
2023-12-23T22:49:36.111Z,4.88
2023-12-23T22:54:37.753Z,4.91
2023-12-23T22:59:39.381Z,4.90
2023-12-23T23:04:42.258Z,4.89
2023-12-23T23:09:43.814Z,4.82
2023-12-23T23:14:45.416Z,4.85
2023-12-23T23:19:48.403Z,4.78
2023-12-23T23:24:49.983Z,4.77
2023-12-23T23:29:51.540Z,4.69
2023-12-23T23:35:01.270Z,4.75
2023-12-23T23:40:10.359Z,4.74
2023-12-23T23:45:12.016Z,4.71
2023-12-23T23:50:15.696Z,4.73
2023-12-23T23:55:17.373Z,4.72
